Time;durP1;ratioP1;P1;durP2;ratioP2;P2;SDS_P1;SDS_P2;PMS_P1;PMS_P2;Temp;Humidity;BMP_temperature;BMP_pressure;BME280_temperature;BME280_humidity;BME280_pressure;Samples;Min_cycle;Max_cycle;Signal;HPM_P1;HPM_P2
2023/02/19 00:02:07;;;;;;;10.73;6.60;;;;;;;7.97;100.00;99689.28;5045150;28;20033;-60
2023/02/19 00:04:32;;;;;;;10.38;6.47;;;;;;;7.94;100.00;99678.22;5041518;28;20071;-60
2023/02/19 00:06:57;;;;;;;10.63;6.80;;;;;;;7.91;100.00;99674.13;5042060;28;20090;-60
2023/02/19 00:09:23;;;;;;;9.93;6.72;;;;;;;7.92;100.00;99673.09;5044557;28;20475;-60
2023/02/19 00:11:48;;;;;;;11.52;7.10;;;;;;;7.85;100.00;99661.63;5043838;28;20025;-60
2023/02/19 00:14:17;;;;;;;10.63;6.55;;;;;;;7.84;100.00;99661.81;5045111;28;20197;-60
2023/02/19 00:16:43;;;;;;;11.85;7.05;;;;;;;7.80;100.00;99660.63;5042603;28;20055;-60
2023/02/19 00:19:11;;;;;;;11.65;7.22;;;;;;;7.81;100.00;99662.25;5048161;28;20033;-60
2023/02/19 00:21:37;;;;;;;8.52;5.78;;;;;;;7.77;100.00;99662.69;5046801;28;20103;-60
2023/02/19 00:24:03;;;;;;;11.45;7.57;;;;;;;7.76;100.00;99669.06;5050618;28;20036;-60
2023/02/19 00:26:29;;;;;;;10.60;7.03;;;;;;;7.77;100.00;99664.56;5042648;28;20467;-60
2023/02/19 00:28:55;;;;;;;12.15;7.88;;;;;;;7.72;100.00;99669.72;5047925;28;20117;-60
2023/02/19 00:31:22;;;;;;;11.25;6.97;;;;;;;7.69;100.00;99667.47;5045040;28;20036;-60
2023/02/19 00:33:48;;;;;;;12.13;7.65;;;;;;;7.68;100.00;99663.97;5045391;28;20135;-60
2023/02/19 00:36:14;;;;;;;12.10;7.57;;;;;;;7.66;100.00;99667.88;5041102;28;20029;-60
2023/02/19 00:38:40;;;;;;;10.77;7.00;;;;;;;7.66;100.00;99667.88;5049933;28;20024;-60
2023/02/19 00:41:18;;;;;;;12.27;7.68;;;;;;;7.66;100.00;99670.53;5045078;28;20087;-60
2023/02/19 00:43:48;;;;;;;12.15;7.60;;;;;;;7.67;100.00;99672.19;5049619;28;20029;-60
2023/02/19 00:46:15;;;;;;;12.75;8.00;;;;;;;7.63;100.00;99665.63;5038427;28;20032;-60
2023/02/19 00:48:40;;;;;;;13.05;7.28;;;;;;;7.59;100.00;99659.06;5041518;28;20040;-60
2023/02/19 00:51:05;;;;;;;12.00;7.40;;;;;;;7.56;100.00;99661.16;5046758;28;20021;-60
2023/02/19 00:53:31;;;;;;;14.48;8.50;;;;;;;7.52;100.00;99654.59;5047824;28;20033;-60
2023/02/19 00:55:56;;;;;;;12.73;7.90;;;;;;;7.52;100.00;99659.13;5042839;28;20018;-60
2023/02/19 00:58:21;;;;;;;14.73;8.27;;;;;;;7.53;100.00;99655.41;5043681;28;20028;-60
2023/02/19 01:00:47;;;;;;;12.85;7.68;;;;;;;7.51;100.00;99644.97;5041109;28;20491;-60
2023/02/19 01:03:12;;;;;;;12.45;7.20;;;;;;;7.53;100.00;99650.09;5046923;28;20037;-60
2023/02/19 01:05:38;;;;;;;13.98;7.82;;;;;;;7.51;100.00;99644.13;5042297;28;20103;-60
2023/02/19 01:08:03;;;;;;;14.05;7.35;;;;;;;7.48;100.00;99642.72;5038062;28;20329;-60
2023/02/19 01:10:28;;;;;;;13.73;7.97;;;;;;;7.47;100.00;99637.59;5048575;28;20084;-60
2023/02/19 01:12:54;;;;;;;16.70;7.55;;;;;;;7.48;100.00;99632.03;5046036;28;20429;-60
2023/02/19 01:15:19;;;;;;;12.05;6.85;;;;;;;7.52;100.00;99627.94;5043856;28;20051;-60
2023/02/19 01:17:45;;;;;;;12.35;6.95;;;;;;;7.51;100.00;99631.66;5048178;28;20017;-60
2023/02/19 01:20:10;;;;;;;11.07;6.85;;;;;;;7.50;100.00;99622.00;5043375;28;20148;-60
2023/02/19 01:22:36;;;;;;;10.10;6.63;;;;;;;7.50;100.00;99618.50;5049717;28;20361;-59
2023/02/19 01:25:01;;;;;;;9.30;5.85;;;;;;;7.52;100.00;99627.94;5039010;28;20460;-59
2023/02/19 01:27:26;;;;;;;9.15;6.32;;;;;;;7.53;100.00;99624.22;5038240;28;20029;-60
2023/02/19 01:29:52;;;;;;;9.60;5.63;;;;;;;7.49;100.00;99631.03;5033804;28;20037;-60
2023/02/19 01:32:17;;;;;;;10.85;5.80;;;;;;;7.50;100.00;99621.19;5051649;28;20040;-60
2023/02/19 01:34:43;;;;;;;10.85;5.80;;;;;;;7.48;100.00;99620.56;5046284;28;20040;-60
2023/02/19 01:37:10;;;;;;;10.35;5.75;;;;;;;7.45;100.00;99611.13;5051080;28;20021;-60
2023/02/19 01:39:39;;;;;;;9.48;6.03;;;;;;;7.44;100.00;99593.50;5041582;28;20032;-60
2023/02/19 01:42:06;;;;;;;9.65;5.95;;;;;;;7.44;100.00;99593.50;5035484;28;20070;-60
2023/02/19 01:44:31;;;;;;;8.98;5.20;;;;;;;7.43;100.00;99597.19;5039516;28;20543;-60
2023/02/19 01:46:57;;;;;;;10.13;4.30;;;;;;;7.44;100.00;99585.50;5039560;28;20124;-60
2023/02/19 01:49:49;;;;;;;9.88;4.45;;;;;;;7.44;100.00;99585.50;5055950;28;20035;-60
2023/02/19 01:52:26;;;;;;;7.45;4.40;;;;;;;7.46;100.00;99595.94;5041302;28;20445;-60
2023/02/19 01:54:51;;;;;;;6.63;3.25;;;;;;;7.49;100.00;99593.69;5045141;28;20036;-59
2023/02/19 01:57:19;;;;;;;6.43;3.95;;;;;;;7.43;100.00;99591.84;5040474;28;20029;-60
2023/02/19 01:59:45;;;;;;;6.63;4.15;;;;;;;7.40;100.00;99600.28;5045699;28;20040;-60
2023/02/19 02:02:11;;;;;;;6.68;4.18;;;;;;;7.33;100.00;99600.31;5041555;28;20036;-60
2023/02/19 02:04:36;;;;;;;7.85;4.15;;;;;;;7.35;100.00;99600.13;5045758;28;20434;-60
2023/02/19 02:10:18;;;;;;;5.38;3.03;;;;;;;7.43;100.00;99601.72;5037497;28;20522;-60
2023/02/19 02:12:32;;;;;;;8.43;4.57;;;;;;;7.39;100.00;99604.00;5042072;28;20062;-60
2023/02/19 02:14:57;;;;;;;6.70;4.13;;;;;;;7.43;100.00;99605.19;5030732;28;20025;-60
2023/02/19 02:17:27;;;;;;;6.05;3.85;;;;;;;7.48;100.00;99600.03;5036866;28;20017;-60
2023/02/19 02:20:11;;;;;;;7.85;4.00;;;;;;;7.46;100.00;99596.78;5037024;28;20479;-60
2023/02/19 02:22:40;;;;;;;6.60;3.75;;;;;;;7.42;100.00;99595.56;5038767;28;20041;-60
2023/02/19 02:25:24;;;;;;;7.32;3.45;;;;;;;7.40;100.00;99604.81;5016926;28;20013;-60
2023/02/19 02:27:58;;;;;;;7.10;4.15;;;;;;;7.41;100.00;99601.09;5045387;28;20734;-60
2023/02/19 02:30:35;;;;;;;9.98;4.07;;;;;;;7.34;100.00;99593.16;5033551;28;20484;-60
2023/02/19 02:33:19;;;;;;;11.00;3.95;;;;;;;7.36;100.00;99577.75;5037022;28;20032;-60
2023/02/19 02:36:17;;;;;;;7.40;4.25;;;;;;;7.32;100.00;99579.22;5042867;28;20021;-60
2023/02/19 02:38:43;;;;;;;6.28;3.72;;;;;;;7.31;100.00;99572.22;5033615;28;20039;-60
2023/02/19 02:41:08;;;;;;;6.78;3.80;;;;;;;7.31;100.00;99574.88;5035787;28;20030;-60
2023/02/19 02:43:34;;;;;;;6.40;3.78;;;;;;;7.27;100.00;99573.69;5033788;28;20038;-60
2023/02/19 02:45:59;;;;;;;6.38;3.55;;;;;;;7.25;100.00;99573.09;5043114;28;20026;-60
2023/02/19 02:48:37;;;;;;;6.43;3.67;;;;;;;7.29;100.00;99577.78;5034333;28;20041;-61
2023/02/19 02:51:06;;;;;;;6.90;3.30;;;;;;;7.25;100.00;99594.41;5040109;28;20056;-60
2023/02/19 02:56:37;;;;;;;7.78;3.65;;;;;;;7.27;100.00;99581.69;5033614;28;20036;-60
2023/02/19 02:59:04;;;;;;;7.82;4.63;;;;;;;7.23;100.00;99577.81;5051530;28;20021;-60
2023/02/19 03:04:23;;;;;;;6.80;3.80;;;;;;;7.33;100.00;99588.84;5029587;28;20114;-60
2023/02/19 03:06:49;;;;;;;4.18;2.58;;;;;;;7.43;100.00;99597.19;5039602;28;20037;-60
2023/02/19 03:09:20;;;;;;;6.13;3.58;;;;;;;7.46;100.00;99586.13;5037484;28;20091;-60
2023/02/19 03:20:19;;;;;;;6.72;3.70;;;;;;;7.59;100.00;99605.72;5036691;28;20170;-60
2023/02/19 03:22:44;;;;;;;6.00;3.67;;;;;;;7.61;100.00;99601.81;5024379;28;20577;-60
2023/02/19 03:28:03;;;;;;;7.72;3.40;;;;;;;7.78;100.00;99578.13;5035169;28;20240;-60
2023/02/19 03:30:34;;;;;;;5.65;3.33;;;;;;;7.68;100.00;99564.44;5026252;28;20040;-60
2023/02/19 03:33:07;;;;;;;7.75;3.60;;;;;;;7.63;100.00;99556.25;5017791;28;20064;-60
2023/02/19 03:35:40;;;;;;;8.05;3.40;;;;;;;7.61;100.00;99551.13;5036450;28;20155;-60
2023/02/19 03:38:24;;;;;;;6.35;3.70;;;;;;;7.62;100.00;99557.31;5033012;28;20035;-60
2023/02/19 03:40:59;;;;;;;7.97;3.60;;;;;;;7.59;100.00;99557.72;5041026;28;20022;-60
2023/02/19 03:43:30;;;;;;;7.22;3.90;;;;;;;7.55;100.00;99544.81;5039135;28;20032;-59
2023/02/19 03:46:10;;;;;;;5.90;3.53;;;;;;;7.60;100.00;99559.38;5043397;28;20040;-60
2023/02/19 03:48:39;;;;;;;12.05;4.20;;;;;;;7.57;100.00;99571.28;5036970;28;20041;-60
2023/02/19 03:51:11;;;;;;;5.20;3.00;;;;;;;7.62;100.00;99579.47;5031614;28;20037;-60
2023/02/19 03:54:14;;;;;;;5.10;2.90;;;;;;;7.79;100.00;99593.13;5025991;28;20047;-60
2023/02/19 03:56:47;;;;;;;7.13;3.47;;;;;;;7.89;100.00;99592.63;5009568;28;20071;-60
2023/02/19 03:59:19;;;;;;;5.45;2.83;;;;;;;7.98;100.00;99605.47;5038693;28;20101;-60
2023/02/19 04:01:51;;;;;;;6.05;3.10;;;;;;;7.98;100.00;99610.00;5028595;28;20074;-60
2023/02/19 04:04:35;;;;;;;5.03;2.88;;;;;;;8.04;100.00;99613.66;5056526;28;20025;-60
2023/02/19 04:07:01;;;;;;;6.72;3.13;;;;;;;7.97;100.00;99614.53;5035134;28;20041;-60
2023/02/19 04:09:37;;;;;;;6.53;3.10;;;;;;;8.03;100.00;99617.38;5039683;28;20553;-60
2023/02/19 04:12:02;;;;;;;6.18;2.67;;;;;;;8.03;100.00;99634.19;5042481;28;20025;-61
2023/02/19 04:14:42;;;;;;;5.13;2.75;;;;;;;8.10;100.00;99637.66;5047242;28;20028;-60
2023/02/19 04:17:11;;;;;;;10.65;2.65;;;;;;;8.11;100.00;99631.28;5047802;28;20104;-61
2023/02/19 04:19:37;;;;;;;4.43;2.47;;;;;;;8.08;100.00;99647.72;5045421;28;20117;-60
2023/02/19 04:22:03;;;;;;;6.10;2.97;;;;;;;8.09;100.00;99635.22;5038439;28;20448;-60
2023/02/19 04:24:40;;;;;;;8.65;3.17;;;;;;;8.07;100.00;99634.59;5046512;28;20356;-60
2023/02/19 04:27:06;;;;;;;6.03;2.88;;;;;;;8.10;100.00;99626.16;5042391;28;20025;-60
2023/02/19 04:29:31;;;;;;;5.47;2.90;;;;;;;8.06;100.00;99644.44;5045132;28;20067;-61
2023/02/19 04:31:57;;;;;;;5.30;2.67;;;;;;;8.10;100.00;99637.66;5046074;28;20029;-60
2023/02/19 04:34:22;;;;;;;6.38;2.85;;;;;;;8.07;100.00;99638.09;5043246;28;20028;-60
2023/02/19 04:36:48;;;;;;;5.57;2.90;;;;;;;8.17;100.00;99640.28;5041061;28;20037;-60
2023/02/19 04:39:13;;;;;;;8.98;3.42;;;;;;;8.17;100.00;99640.28;5043515;28;20446;-60
2023/02/19 04:41:38;;;;;;;6.20;2.72;;;;;;;8.15;100.00;99645.81;5041226;28;20053;-60
2023/02/19 04:44:04;;;;;;;5.80;2.83;;;;;;;8.18;100.00;99642.72;5044812;28;20021;-60
2023/02/19 04:46:29;;;;;;;4.28;2.30;;;;;;;8.16;100.00;99643.97;5051872;28;20029;-60
2023/02/19 04:48:55;;;;;;;5.28;2.60;;;;;;;8.08;100.00;99662.94;5042656;28;20039;-60
2023/02/19 04:51:20;;;;;;;7.45;2.83;;;;;;;8.11;100.00;99665.16;5035475;28;20394;-60
2023/02/19 04:53:45;;;;;;;7.80;2.88;;;;;;;8.10;100.00;99669.69;5042591;28;20029;-60
2023/02/19 04:56:12;;;;;;;8.18;2.90;;;;;;;8.06;100.00;99673.00;5056888;28;20376;-60
2023/02/19 04:58:38;;;;;;;7.82;3.03;;;;;;;7.99;100.00;99673.06;5042803;28;20143;-60
2023/02/19 05:01:04;;;;;;;7.57;3.40;;;;;;;7.96;100.00;99674.31;5042201;28;20540;-59
2023/02/19 05:03:29;;;;;;;9.38;3.30;;;;;;;7.91;100.00;99674.13;5051434;28;20099;-60
2023/02/19 05:05:55;;;;;;;10.55;3.45;;;;;;;7.93;100.00;99672.03;5044034;28;20537;-60
2023/02/19 05:08:20;;;;;;;7.43;3.08;;;;;;;7.93;100.00;99680.03;5045394;28;20375;-60
2023/02/19 05:10:46;;;;;;;8.75;3.00;;;;;;;7.95;100.00;99683.31;5039072;28;20041;-59
2023/02/19 05:13:11;;;;;;;6.68;3.10;;;;;;;7.94;100.00;99679.03;5037398;28;20025;-60
2023/02/19 05:15:36;;;;;;;6.75;3.08;;;;;;;7.94;100.00;99673.69;5039166;28;20079;-60
2023/02/19 05:18:02;;;;;;;5.30;2.42;;;;;;;7.91;100.00;99679.47;5043621;28;20041;-60
2023/02/19 05:20:27;;;;;;;10.45;3.13;;;;;;;7.96;100.00;99698.31;5044679;28;20133;-60
2023/02/19 05:22:53;;;;;;;6.75;2.88;;;;;;;7.95;100.00;99686.00;5045706;28;20103;-60
2023/02/19 05:25:18;;;;;;;7.22;3.00;;;;;;;7.99;100.00;99684.53;5038990;28;20028;-60
2023/02/19 05:27:44;;;;;;;6.68;2.83;;;;;;;7.99;100.00;99673.88;5046049;28;20048;-60
2023/02/19 05:30:10;;;;;;;13.55;3.10;;;;;;;7.99;100.00;99670.38;5047905;28;20812;-60
2023/02/19 05:32:35;;;;;;;9.07;2.90;;;;;;;8.02;100.00;99675.28;5046271;28;20029;-60
2023/02/19 05:35:01;;;;;;;8.35;3.20;;;;;;;8.00;100.00;99680.81;5040350;28;20029;-59
2023/02/19 05:37:26;;;;;;;5.20;2.70;;;;;;;7.97;100.00;99689.28;5045688;28;20039;-60
2023/02/19 05:39:51;;;;;;;9.60;2.83;;;;;;;8.00;100.00;99690.69;5037781;28;20036;-60
2023/02/19 05:42:17;;;;;;;7.65;3.38;;;;;;;8.02;100.00;99696.66;5037653;28;20025;-59
2023/02/19 05:44:42;;;;;;;13.15;3.40;;;;;;;8.00;100.00;99699.50;5040588;28;20082;-59
2023/02/19 05:47:08;;;;;;;8.57;3.30;;;;;;;7.99;100.00;99692.56;5039010;28;20045;-59
2023/02/19 05:49:33;;;;;;;9.63;3.67;;;;;;;7.97;100.00;99693.81;5043285;28;20025;-59
2023/02/19 05:51:59;;;;;;;9.98;3.50;;;;;;;7.97;100.00;99699.13;5044806;28;20029;-59
2023/02/19 05:54:27;;;;;;;8.77;3.50;;;;;;;7.94;100.00;99711.06;5045268;28;20029;-59
2023/02/19 05:56:52;;;;;;;6.28;3.35;;;;;;;8.02;100.00;99710.00;5047855;28;20112;-59
2023/02/19 05:59:19;;;;;;;11.00;3.60;;;;;;;7.99;100.00;99716.56;5036063;28;20474;-60
2023/02/19 06:01:45;;;;;;;12.18;3.45;;;;;;;8.02;100.00;99717.19;5043260;28;20477;-59
2023/02/19 06:04:11;;;;;;;12.35;4.05;;;;;;;7.98;100.00;99728.28;5046078;28;20034;-59
2023/02/19 06:06:36;;;;;;;14.15;4.20;;;;;;;8.13;100.00;99719.16;5051208;28;20063;-59
2023/02/19 06:09:03;;;;;;;17.98;4.88;;;;;;;8.06;100.00;99718.38;5043967;28;20017;-59
2023/02/19 06:11:29;;;;;;;19.38;5.25;;;;;;;7.97;100.00;99721.31;5026890;28;20041;-59
2023/02/19 06:13:54;;;;;;;11.55;5.60;;;;;;;7.97;100.00;99726.66;5042350;28;20025;-59
2023/02/19 06:16:20;;;;;;;17.48;5.95;;;;;;;7.94;100.00;99732.41;5044634;28;20032;-59
2023/02/19 06:18:46;;;;;;;15.48;5.22;;;;;;;8.03;100.00;99737.50;5048180;28;20027;-60
2023/02/19 06:21:11;;;;;;;16.73;6.13;;;;;;;8.00;100.00;99742.22;5051063;28;20021;-59
2023/02/19 06:23:37;;;;;;;14.60;5.75;;;;;;;7.93;100.00;99746.78;5043332;28;20111;-59
2023/02/19 06:26:06;;;;;;;19.60;5.53;;;;;;;7.89;100.00;99756.25;5039719;28;20017;-59
2023/02/19 06:28:31;;;;;;;16.38;5.85;;;;;;;7.89;100.00;99750.91;5044578;28;20116;-59
2023/02/19 06:31:00;;;;;;;16.17;4.68;;;;;;;7.92;100.00;99750.50;5040472;28;20372;-59
2023/02/19 06:33:26;;;;;;;17.95;5.03;;;;;;;7.89;100.00;99755.44;5034610;28;20033;-60
2023/02/19 06:35:52;;;;;;;20.08;10.43;;;;;;;7.97;100.00;99765.88;5044307;28;20032;-59
2023/02/19 06:38:17;;;;;;;19.15;9.50;;;;;;;7.94;100.00;99772.44;5032018;28;20029;-59
2023/02/19 06:40:43;;;;;;;26.63;13.93;;;;;;;7.95;100.00;99774.06;5041259;28;20035;-59
2023/02/19 06:43:08;;;;;;;39.78;30.75;;;;;;;7.94;100.00;99775.13;5043852;28;20036;-59
2023/02/19 06:45:34;;;;;;;18.35;10.00;;;;;;;7.97;100.00;99777.34;5038954;28;20030;-59
2023/02/19 06:47:59;;;;;;;20.27;8.20;;;;;;;7.93;100.00;99765.47;5033178;28;20056;-62
2023/02/19 06:50:24;;;;;;;46.03;23.13;;;;;;;7.90;100.00;99773.91;5052414;28;20462;-59
2023/02/19 06:52:50;;;;;;;21.98;11.70;;;;;;;7.90;100.00;99776.56;5047063;28;20124;-59
2023/02/19 06:55:15;;;;;;;157.02;41.08;;;;;;;7.89;100.00;99777.59;5044868;28;20032;-61
2023/02/19 06:57:41;;;;;;;30.17;12.25;;;;;;;7.91;100.00;99786.22;5037433;28;20438;-61
2023/02/19 07:00:07;;;;;;;24.75;12.57;;;;;;;7.90;100.00;99784.56;5037819;28;20029;-58
2023/02/19 07:02:32;;;;;;;28.60;12.88;;;;;;;7.87;100.00;99790.34;5055533;28;20051;-58
2023/02/19 07:04:58;;;;;;;17.85;8.82;;;;;;;7.91;100.00;99786.22;5038160;28;20029;-58
2023/02/19 07:07:23;;;;;;;25.08;14.35;;;;;;;7.91;100.00;99791.56;5034298;28;20032;-61
2023/02/19 07:09:49;;;;;;;17.38;8.70;;;;;;;7.96;100.00;99788.25;5067275;28;20045;-61
2023/02/19 07:12:14;;;;;;;31.05;12.23;;;;;;;8.04;100.00;99801.38;5049961;28;20029;-60
2023/02/19 07:14:39;;;;;;;28.42;15.93;;;;;;;8.04;100.00;99797.84;5039400;28;20025;-60
2023/02/19 07:17:05;;;;;;;28.50;16.08;;;;;;;7.98;100.00;99796.84;5041058;28;20028;-58
2023/02/19 07:19:30;;;;;;;24.42;13.75;;;;;;;8.03;100.00;99804.25;5047029;28;20483;-61
2023/02/19 07:21:56;;;;;;;20.23;10.57;;;;;;;8.01;100.00;99809.78;5037505;28;20021;-59
2023/02/19 07:24:21;;;;;;;31.88;15.43;;;;;;;8.00;100.00;99811.63;5045538;28;20390;-59
2023/02/19 07:26:47;;;;;;;26.58;9.02;;;;;;;8.03;100.00;99815.72;5039840;28;20028;-59
2023/02/19 07:29:12;;;;;;;18.95;7.30;;;;;;;8.04;100.00;99811.19;5043586;28;20040;-59
2023/02/19 07:31:37;;;;;;;18.17;8.32;;;;;;;8.03;100.00;99815.72;5033901;28;20017;-59
2023/02/19 07:34:03;;;;;;;100.32;70.45;;;;;;;8.05;100.00;99815.53;5042404;28;20029;-59
2023/02/19 07:36:28;;;;;;;25.90;14.98;;;;;;;8.08;100.00;99833.78;5037909;28;20047;-59
2023/02/19 07:38:55;;;;;;;20.67;11.82;;;;;;;8.11;100.00;99836.88;5035781;28;20103;-59
2023/02/19 07:41:20;;;;;;;21.23;10.98;;;;;;;8.12;100.00;99835.84;5034671;28;20062;-59
2023/02/19 07:43:46;;;;;;;22.15;11.00;;;;;;;8.18;100.00;99844.84;5032450;28;20033;-59
2023/02/19 07:46:12;;;;;;;33.42;20.00;;;;;;;8.12;100.00;99835.84;5040504;28;20044;-59
2023/02/19 07:48:38;;;;;;;36.78;17.50;;;;;;;8.12;100.00;99849.19;5045450;28;20032;-61
2023/02/19 07:51:04;;;;;;;56.35;34.35;;;;;;;8.19;100.00;99849.16;5045504;28;20021;-58
2023/02/19 07:53:30;;;;;;;31.58;16.05;;;;;;;8.26;100.00;99847.25;5045565;28;20039;-58
2023/02/19 07:56:03;;;;;;;71.47;36.03;;;;;;;8.18;100.00;99866.19;5034265;28;20033;-60
2023/02/19 07:58:28;;;;;;;47.92;26.48;;;;;;;8.27;100.00;99858.78;5036257;28;20124;-60
2023/02/19 08:00:54;;;;;;;33.03;19.55;;;;;;;8.29;100.00;99862.88;5040385;28;20379;-59
2023/02/19 08:03:19;;;;;;;57.53;36.55;;;;;;;8.32;100.00;99869.66;5042037;28;20457;-60
2023/02/19 08:05:45;;;;;;;66.32;38.92;;;;;;;8.38;100.00;99872.28;5042168;28;20013;-60
2023/02/19 08:08:12;;;;;;;75.65;39.00;;;;;;;8.32;100.00;99866.97;5055931;28;20029;-60
2023/02/19 08:13:22;;;;;;;70.78;31.10;;;;;;;8.38;100.00;99887.50;5041847;28;20118;-59
2023/02/19 08:15:54;;;;;;;123.82;49.70;;;;;;;8.37;100.00;99886.69;5038156;28;20475;-60
2023/02/19 08:18:23;;;;;;;25.30;12.50;;;;;;;8.48;100.00;99892.41;5042203;28;20098;-60
2023/02/19 08:20:49;;;;;;;93.60;40.10;;;;;;;8.43;100.00;99893.03;5045802;28;20497;-60
2023/02/19 08:23:14;;;;;;;48.78;18.55;;;;;;;8.43;100.00;99893.84;5034956;28;20311;-59
2023/02/19 08:25:40;;;;;;;55.80;22.42;;;;;;;8.42;100.00;99902.91;5041692;28;20025;-59
2023/02/19 08:28:05;;;;;;;85.97;45.97;;;;;;;8.41;100.00;99909.31;5042650;28;20026;-59
2023/02/19 08:30:31;;;;;;;47.03;24.13;;;;;;;8.45;100.00;99904.34;5049230;28;20032;-59
2023/02/19 08:32:57;;;;;;;90.35;45.53;;;;;;;8.50;100.00;99919.75;5037270;28;20026;-60
2023/02/19 08:35:22;;;;;;;79.82;35.50;;;;;;;8.56;100.00;99908.19;5041155;28;20041;-59
2023/02/19 08:37:48;;;;;;;28.25;16.83;;;;;;;8.58;100.00;99914.97;5045624;28;20838;-59
2023/02/19 08:40:13;;;;;;;17.25;10.07;;;;;;;8.58;100.00;99914.16;5048630;28;20409;-60
2023/02/19 08:42:39;;;;;;;34.90;19.30;;;;;;;8.55;100.00;99920.75;5039493;28;20028;-60
2023/02/19 08:45:05;;;;;;;25.95;9.30;;;;;;;8.57;100.00;99924.03;5041117;28;20022;-59
2023/02/19 08:47:30;;;;;;;23.02;11.70;;;;;;;8.57;100.00;99925.88;5046663;28;20415;-59
2023/02/19 08:49:56;;;;;;;43.40;23.80;;;;;;;8.55;100.00;99934.09;5040549;28;20491;-59
2023/02/19 08:52:21;;;;;;;56.05;28.05;;;;;;;8.63;100.00;99938.38;5040994;28;20445;-60
2023/02/19 08:54:46;;;;;;;58.97;34.95;;;;;;;8.59;100.00;99951.34;5051478;28;20426;-59
2023/02/19 08:57:15;;;;;;;46.95;28.20;;;;;;;8.55;100.00;99946.66;5072299;28;20025;-59
2023/02/19 08:59:40;;;;;;;53.33;30.50;;;;;;;8.49;100.00;99944.84;5038748;28;20039;-59
2023/02/19 09:02:07;;;;;;;30.52;13.00;;;;;;;8.54;100.00;99961.84;5049635;28;20029;-59
2023/02/19 09:04:32;;;;;;;20.35;7.28;;;;;;;8.47;100.00;99963.72;5039538;28;20032;-59
2023/02/19 09:06:58;;;;;;;21.42;7.32;;;;;;;8.38;100.00;99962.28;5037514;28;20498;-59
2023/02/19 09:09:23;;;;;;;26.67;7.82;;;;;;;8.39;100.00;99975.47;5044553;28;20082;-58
2023/02/19 09:11:49;;;;;;;22.25;7.85;;;;;;;8.32;100.00;99974.63;5044230;28;20075;-60
2023/02/19 09:14:14;;;;;;;23.40;7.85;;;;;;;8.38;100.00;99979.13;5044987;28;20036;-59
2023/02/19 09:16:40;;;;;;;23.38;7.60;;;;;;;8.49;100.00;99979.56;5044580;28;20021;-59
2023/02/19 09:19:05;;;;;;;20.05;7.88;;;;;;;8.68;100.00;99972.50;5037656;28;20028;-59
2023/02/19 09:21:30;;;;;;;27.30;8.30;;;;;;;8.72;100.00;99977.19;5046448;28;20412;-59
2023/02/19 09:23:56;;;;;;;14.25;7.63;;;;;;;8.61;100.00;99972.50;5037120;28;20034;-59
2023/02/19 09:26:22;;;;;;;20.25;7.53;;;;;;;8.68;100.00;99973.31;5040837;28;20397;-59
2023/02/19 09:28:47;;;;;;;23.05;7.82;;;;;;;8.73;100.00;99970.00;5050884;28;20035;-60
2023/02/19 09:31:13;;;;;;;23.40;8.18;;;;;;;8.75;100.00;99968.75;5048146;28;20033;-59
2023/02/19 09:33:43;;;;;;;22.67;7.10;;;;;;;8.81;100.00;99977.78;5035909;28;20437;-60
2023/02/19 09:36:08;;;;;;;16.30;6.88;;;;;;;8.95;100.00;99974.00;5041712;28;20675;-59
2023/02/19 09:38:34;;;;;;;16.73;7.22;;;;;;;8.97;100.00;99971.13;5038807;28;20030;-60
2023/02/19 09:41:05;;;;;;;16.52;6.80;;;;;;;9.12;100.00;99976.19;5047605;28;20024;-60
2023/02/19 09:43:30;;;;;;;16.95;6.68;;;;;;;9.47;98.68;99976.59;5041002;28;20028;-60
2023/02/19 09:46:18;;;;;;;23.08;6.53;;;;;;;9.64;96.66;99980.38;5042914;28;20420;-59
2023/02/19 09:48:44;;;;;;;15.20;6.72;;;;;;;10.79;90.45;99985.22;5043379;28;20033;-59
2023/02/19 09:51:09;;;;;;;22.05;7.13;;;;;;;11.04;86.06;99991.53;5033141;28;20404;-59
2023/02/19 09:53:41;;;;;;;14.43;5.80;;;;;;;10.62;87.88;99983.38;5039640;28;20452;-59
2023/02/19 09:56:06;;;;;;;15.85;5.55;;;;;;;10.65;88.84;99985.59;5028608;28;20021;-60
2023/02/19 09:58:42;;;;;;;12.13;5.63;;;;;;;10.90;88.08;99997.03;5026577;28;20021;-60
2023/02/19 10:01:09;;;;;;;17.92;6.28;;;;;;;10.63;87.52;99995.72;5026650;28;20132;-59
2023/02/19 10:03:42;;;;;;;19.35;7.15;;;;;;;10.65;88.04;99999.00;5043669;28;20103;-59
2023/02/19 10:06:19;;;;;;;17.38;6.75;;;;;;;10.39;88.45;99995.59;5025191;28;20040;-59
2023/02/19 10:08:45;;;;;;;16.08;6.13;;;;;;;10.74;86.44;99997.66;5042931;28;20025;-59
2023/02/19 10:11:11;;;;;;;19.45;7.28;;;;;;;10.36;87.78;100002.22;5043035;28;20092;-59
2023/02/19 10:14:13;;;;;;;17.23;6.95;;;;;;;10.40;87.00;100005.25;5043480;28;20017;-59
2023/02/19 10:16:39;;;;;;;21.17;7.95;;;;;;;10.18;88.23;100010.16;5025112;28;20320;-59
2023/02/19 10:19:08;;;;;;;22.15;8.55;;;;;;;10.04;89.32;100009.50;5041392;28;20052;-59
2023/02/19 10:21:34;;;;;;;20.20;8.32;;;;;;;10.19;88.11;100027.09;5037356;28;20083;-59
2023/02/19 10:24:00;;;;;;;20.52;8.20;;;;;;;10.03;88.73;100020.41;5018430;28;20463;-59
2023/02/19 10:26:26;;;;;;;12.60;7.35;;;;;;;9.92;89.27;100027.31;5030261;28;20129;-59
2023/02/19 10:28:53;;;;;;;23.17;7.88;;;;;;;10.07;88.90;100033.16;5026439;28;20089;-60
2023/02/19 10:31:22;;;;;;;27.95;8.27;;;;;;;10.06;88.67;100031.53;5043416;28;20115;-59
2023/02/19 10:33:54;;;;;;;19.60;8.02;;;;;;;10.17;87.92;100047.91;5040988;28;20032;-60
2023/02/19 10:36:31;;;;;;;20.55;7.63;;;;;;;10.11;87.17;100041.59;5037322;28;20098;-59
2023/02/19 10:38:57;;;;;;;17.95;7.65;;;;;;;10.01;88.01;100052.78;5027877;28;20345;-60
2023/02/19 10:41:23;;;;;;;15.73;7.13;;;;;;;10.21;86.20;100041.06;5036369;28;20047;-59
2023/02/19 10:44:04;;;;;;;19.42;7.78;;;;;;;10.52;85.26;100054.41;5043017;28;20032;-59
2023/02/19 10:46:32;;;;;;;18.77;7.53;;;;;;;10.75;85.55;100058.28;5068314;28;20124;-59
2023/02/19 10:48:58;;;;;;;20.40;7.88;;;;;;;10.62;86.06;100059.25;5030620;28;20025;-59
2023/02/19 10:51:35;;;;;;;21.90;7.75;;;;;;;10.69;84.88;100045.78;5052133;28;20206;-59
2023/02/19 10:54:15;;;;;;;21.80;7.88;;;;;;;10.72;85.63;100046.16;5056310;28;20029;-59
2023/02/19 10:56:41;;;;;;;28.50;7.93;;;;;;;10.90;83.64;100055.22;5042945;28;20025;-59
2023/02/19 10:59:19;;;;;;;18.70;7.47;;;;;;;10.73;82.95;100071.94;5041902;28;20048;-59
2023/02/19 11:02:01;;;;;;;21.08;7.18;;;;;;;10.57;83.97;100072.50;5044545;28;20561;-59
2023/02/19 11:04:33;;;;;;;18.48;7.60;;;;;;;10.84;83.54;100056.94;5043122;28;20028;-60
2023/02/19 11:07:16;;;;;;;14.88;6.95;;;;;;;10.95;84.27;100074.16;5040200;28;20068;-60
2023/02/19 11:09:45;;;;;;;15.38;7.05;;;;;;;10.92;81.91;100070.06;5039787;28;20079;-59
2023/02/19 11:12:21;;;;;;;27.52;11.57;;;;;;;10.91;79.95;100081.84;5035931;28;20083;-59
2023/02/19 11:14:47;;;;;;;31.90;14.18;;;;;;;11.06;79.17;100092.19;5039584;28;20551;-60
2023/02/19 11:17:28;;;;;;;20.13;7.78;;;;;;;10.88;79.55;100094.84;5035566;28;20137;-59
2023/02/19 11:19:57;;;;;;;14.63;8.95;;;;;;;10.67;80.01;100094.25;5029179;28;20050;-59
2023/02/19 11:22:41;;;;;;;16.23;6.85;;;;;;;10.72;80.62;100094.41;5032313;28;20782;-59
2023/02/19 11:25:27;;;;;;;12.88;6.20;;;;;;;10.35;81.83;100090.84;5040289;28;20091;-59
2023/02/19 11:28:06;;;;;;;18.67;8.60;;;;;;;10.35;82.91;100080.13;5034487;28;20271;-59
2023/02/19 11:30:41;;;;;;;19.10;7.10;;;;;;;10.14;84.38;100094.72;5033311;28;20442;-59
2023/02/19 11:33:12;;;;;;;15.43;7.22;;;;;;;9.97;85.44;100099.78;5041330;28;20407;-59
2023/02/19 11:35:38;;;;;;;15.57;6.63;;;;;;;9.95;85.38;100096.50;5037695;28;20025;-59
2023/02/19 11:38:07;;;;;;;16.35;8.63;;;;;;;9.89;85.92;100097.38;5044210;28;20017;-60
2023/02/19 11:40:47;;;;;;;18.55;7.63;;;;;;;9.92;87.39;100094.25;5037347;28;20021;-60
2023/02/19 11:44:00;;;;;;;20.50;10.07;;;;;;;10.18;87.92;100100.44;5039647;28;20083;-59
2023/02/19 11:46:31;;;;;;;15.88;7.40;;;;;;;10.23;86.80;100106.78;5001132;28;20032;-59
2023/02/19 11:49:18;;;;;;;10.73;5.90;;;;;;;9.95;86.83;100109.88;5036304;28;20028;-60
2023/02/19 11:52:07;;;;;;;11.90;5.25;;;;;;;10.00;86.83;100114.59;5036410;28;20036;-59
2023/02/19 11:54:43;;;;;;;13.93;5.68;;;;;;;10.17;85.50;100120.25;5034837;28;20016;-59